S-y Atmosphere — ZCGY6 — position and weather

sailwx.info

Track history (hours):
 
Tides and Currents Weather Stations Pressure Air Temp Water Temp Dewpoint Dewpoint Depression Visibility Wind Speed Wind Dir Waves Ship Positions

S-y Atmosphere

Last reported at 2014-Nov-12 12:04 UTC. Time now 2014-Nov-26 05:16 UTC.
Position N 36°09' W 005°22'.
Warning: this ship's position is 13 days out of date.

Length 53 m; draft 4 m.

Type: Sailing vessel. MMSI: 319726000.

Date/timePositionNaut miles runAvg speedWind from/ knotsBaromVisibWave heightAir tempDewpointWater temp
2014-Nov-12 12:04N 36°09' W 005°22'0 0.2
2014-Nov-12 11:32N 36°09' W 005°22'0 0.0
2014-Nov-12 10:33N 36°09' W 005°22'0 0.0
2014-Nov-12 09:32N 36°09' W 005°22'0 0.1
2014-Nov-12 08:32N 36°09' W 005°22'3 1.3
2014-Nov-12 06:32N 36°09' W 005°19'0 0.0
2014-Nov-12 05:32N 36°09' W 005°19'0 0.0
2014-Nov-12 04:08N 36°09' W 005°19'0 0.0
2014-Nov-12 03:11N 36°09' W 005°19'0 0.0
2014-Nov-12 02:23N 36°09' W 005°19'0 0.0
2014-Nov-12 00:32N 36°09' W 005°19'0 0.0
2014-Nov-11 23:20N 36°09' W 005°19'0 0.0
2014-Nov-11 22:23N 36°09' W 005°19'0 0.0
2014-Nov-11 21:29N 36°09' W 005°19'0 0.0
2014-Nov-11 19:29N 36°09' W 005°19'0 0.0
2014-Nov-11 18:14N 36°09' W 005°19'0 0.0
2014-Nov-11 16:32N 36°09' W 005°19'0 0.0
2014-Nov-11 15:29N 36°09' W 005°19'0 0.0
2014-Nov-11 12:11N 36°09' W 005°19'0 0.0
2014-Nov-11 08:29N 36°09' W 005°19'0 0.1
2014-Nov-11 07:33N 36°09' W 005°19'6 4.5
2014-Nov-11 06:10N 36°12' W 005°12'391 9.6
2014-Nov-09 13:33N 39°55' E 001°36'1111.3
2014-Nov-09 12:33N 40°04' E 001°45'1110.7
2014-Nov-09 11:33N 40°12' E 001°54'1111.0
2014-Nov-09 10:34N 40°21' E 002°03'1111.2
2014-Nov-09 09:33N 40°30' E 002°12'13111.6
2014-Nov-08 22:15N 42°11' E 004°02'911.3
2014-Nov-08 21:29N 42°18' E 004°09'1111.5
2014-Nov-08 20:33N 42°26' E 004°18'1411.8
2014-Nov-08 19:22N 42°37' E 004°30'1411.7
2014-Nov-08 18:12N 42°47' E 004°42'3711.7
2014-Nov-08 15:04N 43°15' E 005°15'4 8.8
2014-Nov-08 14:34N 43°18' E 005°20'2 2.2
2014-Nov-08 13:33N 43°20' E 005°22'0 0.0
2014-Nov-08 12:34N 43°20' E 005°22'0 0.0
2014-Nov-08 11:33N 43°20' E 005°22'0 0.0
2014-Nov-08 10:30N 43°20' E 005°22'0 0.0
2014-Nov-08 09:33N 43°20' E 005°22'0 0.0
2014-Nov-08 08:33N 43°20' E 005°22'0 0.0
2014-Nov-08 07:33N 43°20' E 005°22'0 0.0
2014-Nov-08 06:33N 43°20' E 005°22'0 0.0
2014-Nov-08 05:30N 43°20' E 005°22'0 0.0
2014-Nov-08 04:30N 43°20' E 005°22'0 0.0
2014-Nov-08 03:33N 43°20' E 005°22'0 0.0
2014-Nov-08 02:33N 43°20' E 005°22'0 0.0
2014-Nov-08 01:30N 43°20' E 005°22'0 0.0
2014-Nov-08 00:30N 43°20' E 005°22'0 0.0
2014-Nov-07 23:30N 43°20' E 005°22'0 0.0
2014-Nov-07 22:33N 43°20' E 005°22'0 0.0
2014-Nov-07 21:30N 43°20' E 005°22'0 0.0
2014-Nov-07 20:27N 43°20' E 005°22'0 0.0
2014-Nov-07 19:30N 43°20' E 005°22'0 0.0
2014-Nov-07 18:33N 43°20' E 005°22'0 0.0
2014-Nov-07 17:33N 43°20' E 005°22'0 0.0
2014-Nov-07 16:33N 43°20' E 005°22'0 0.0
2014-Nov-07 15:33N 43°20' E 005°22'0 0.0
2014-Nov-07 14:33N 43°20' E 005°22'0 0.0
2014-Nov-07 13:30N 43°20' E 005°22'0 0.0
2014-Nov-07 12:30N 43°20' E 005°22'0 0.0
2014-Nov-07 11:33N 43°20' E 005°22'0 0.0
2014-Nov-07 10:33N 43°20' E 005°22'0 0.0
2014-Nov-07 09:33N 43°20' E 005°22'0 0.0
2014-Nov-07 08:33N 43°20' E 005°22'0 0.0
2014-Nov-07 07:30N 43°20' E 005°22'0 0.0
2014-Nov-07 06:30N 43°20' E 005°22'0 0.0
2014-Nov-07 05:30N 43°20' E 005°22'0 0.0
2014-Nov-07 04:30N 43°20' E 005°22'0 0.0
2014-Nov-07 03:30N 43°20' E 005°22'0 0.0
2014-Nov-07 02:30N 43°20' E 005°22'0 0.0
2014-Nov-07 01:24N 43°20' E 005°22'0 0.0
2014-Nov-07 00:33N 43°20' E 005°22'0 0.0
2014-Nov-06 23:33N 43°20' E 005°22'0 0.0
2014-Nov-06 22:30N 43°20' E 005°22'0 0.0
2014-Nov-06 21:33N 43°20' E 005°22'0 0.0
2014-Nov-06 20:33N 43°20' E 005°22'0 0.0
2014-Nov-06 19:33N 43°20' E 005°22'0 0.0
2014-Nov-06 18:26N 43°20' E 005°22'0 0.0
2014-Nov-06 17:29N 43°20' E 005°22'0 0.0
2014-Nov-06 16:33N 43°20' E 005°22'0 0.0
2014-Nov-06 15:32N 43°20' E 005°22'0 0.0
2014-Nov-06 14:32N 43°20' E 005°22'0 0.0
2014-Nov-06 13:32N 43°20' E 005°22'0 0.0
2014-Nov-06 12:20N 43°20' E 005°22'0 0.0
2014-Nov-06 11:32N 43°20' E 005°22'0 0.0
2014-Nov-06 10:32N 43°20' E 005°22'0 0.0
2014-Nov-06 09:29N 43°20' E 005°22'0 0.0
2014-Nov-06 08:32N 43°20' E 005°22'0 0.0
2014-Nov-06 07:32N 43°20' E 005°22'0 0.0
2014-Nov-06 06:29N 43°20' E 005°22'0 0.0
2014-Nov-06 05:29N 43°20' E 005°22'0 0.0
2014-Nov-06 04:32N 43°20' E 005°22'0 0.0
2014-Nov-06 03:32N 43°20' E 005°22'0 0.0
2014-Nov-06 02:32N 43°20' E 005°22'0 0.0
2014-Nov-06 01:29N 43°20' E 005°22'0 0.0
2014-Nov-06 00:32N 43°20' E 005°22'0 0.0
2014-Nov-05 23:29N 43°20' E 005°22'0 0.0
2014-Nov-05 22:32N 43°20' E 005°22'0 0.0
2014-Nov-05 21:29N 43°20' E 005°22'0 0.0
2014-Nov-05 20:29N 43°20' E 005°22'0 0.0
2014-Nov-05 19:32N 43°20' E 005°22'0 0.0
2014-Nov-05 18:32N 43°20' E 005°22'0 0.0
2014-Nov-05 17:32N 43°20' E 005°22'0 0.0
2014-Nov-05 16:29N 43°20' E 005°22'0 0.0
2014-Nov-05 15:29N 43°20' E 005°22'0 0.0
2014-Nov-05 14:29N 43°20' E 005°22'0 0.0
2014-Nov-05 13:32N 43°20' E 005°22'0 0.0
2014-Nov-05 12:32N 43°20' E 005°22'0 0.0
2014-Nov-05 11:32N 43°20' E 005°22'0 0.0
2014-Nov-05 10:32N 43°20' E 005°22'0 0.0
2014-Nov-05 09:32N 43°20' E 005°22'  
Track history (hours):
 
Tides and Currents Weather Stations Pressure Air Temp Water Temp Dewpoint Dewpoint Depression Visibility Wind Speed Wind Dir Waves Ship Positions

S-y Atmosphere

Last reported at 2014-Nov-12 12:04 UTC. Time now 2014-Nov-26 05:16 UTC.
Position N 36°09' W 005°22'.
Warning: this ship's position is 13 days out of date.

Length 53 m; draft 4 m.

Type: Sailing vessel. MMSI: 319726000.

Date/timePositionNaut miles runAvg speedWind from/ knotsBaromVisibWave heightAir tempDewpointWater temp
2014-Nov-12 12:04N 36°09' W 005°22'0 0.2
2014-Nov-12 11:32N 36°09' W 005°22'0 0.0
2014-Nov-12 10:33N 36°09' W 005°22'0 0.0
2014-Nov-12 09:32N 36°09' W 005°22'0 0.1
2014-Nov-12 08:32N 36°09' W 005°22'3 1.3
2014-Nov-12 06:32N 36°09' W 005°19'0 0.0
2014-Nov-12 05:32N 36°09' W 005°19'0 0.0
2014-Nov-12 04:08N 36°09' W 005°19'0 0.0
2014-Nov-12 03:11N 36°09' W 005°19'0 0.0
2014-Nov-12 02:23N 36°09' W 005°19'0 0.0
2014-Nov-12 00:32N 36°09' W 005°19'0 0.0
2014-Nov-11 23:20N 36°09' W 005°19'0 0.0
2014-Nov-11 22:23N 36°09' W 005°19'0 0.0
2014-Nov-11 21:29N 36°09' W 005°19'0 0.0
2014-Nov-11 19:29N 36°09' W 005°19'0 0.0
2014-Nov-11 18:14N 36°09' W 005°19'0 0.0
2014-Nov-11 16:32N 36°09' W 005°19'0 0.0
2014-Nov-11 15:29N 36°09' W 005°19'0 0.0
2014-Nov-11 12:11N 36°09' W 005°19'0 0.0
2014-Nov-11 08:29N 36°09' W 005°19'0 0.1
2014-Nov-11 07:33N 36°09' W 005°19'6 4.5
2014-Nov-11 06:10N 36°12' W 005°12'391 9.6
2014-Nov-09 13:33N 39°55' E 001°36'1111.3
2014-Nov-09 12:33N 40°04' E 001°45'1110.7
2014-Nov-09 11:33N 40°12' E 001°54'1111.0
2014-Nov-09 10:34N 40°21' E 002°03'1111.2
2014-Nov-09 09:33N 40°30' E 002°12'13111.6
2014-Nov-08 22:15N 42°11' E 004°02'911.3
2014-Nov-08 21:29N 42°18' E 004°09'1111.5
2014-Nov-08 20:33N 42°26' E 004°18'1411.8
2014-Nov-08 19:22N 42°37' E 004°30'1411.7
2014-Nov-08 18:12N 42°47' E 004°42'3711.7
2014-Nov-08 15:04N 43°15' E 005°15'4 8.8
2014-Nov-08 14:34N 43°18' E 005°20'2 2.2
2014-Nov-08 13:33N 43°20' E 005°22'0 0.0
2014-Nov-08 12:34N 43°20' E 005°22'0 0.0
2014-Nov-08 11:33N 43°20' E 005°22'0 0.0
2014-Nov-08 10:30N 43°20' E 005°22'0 0.0
2014-Nov-08 09:33N 43°20' E 005°22'0 0.0
2014-Nov-08 08:33N 43°20' E 005°22'0 0.0
2014-Nov-08 07:33N 43°20' E 005°22'0 0.0
2014-Nov-08 06:33N 43°20' E 005°22'0 0.0
2014-Nov-08 05:30N 43°20' E 005°22'0 0.0
2014-Nov-08 04:30N 43°20' E 005°22'0 0.0
2014-Nov-08 03:33N 43°20' E 005°22'0 0.0
2014-Nov-08 02:33N 43°20' E 005°22'0 0.0
2014-Nov-08 01:30N 43°20' E 005°22'0 0.0
2014-Nov-08 00:30N 43°20' E 005°22'0 0.0
2014-Nov-07 23:30N 43°20' E 005°22'0 0.0
2014-Nov-07 22:33N 43°20' E 005°22'0 0.0
2014-Nov-07 21:30N 43°20' E 005°22'0 0.0
2014-Nov-07 20:27N 43°20' E 005°22'0 0.0
2014-Nov-07 19:30N 43°20' E 005°22'0 0.0
2014-Nov-07 18:33N 43°20' E 005°22'0 0.0
2014-Nov-07 17:33N 43°20' E 005°22'0 0.0
2014-Nov-07 16:33N 43°20' E 005°22'0 0.0
2014-Nov-07 15:33N 43°20' E 005°22'0 0.0
2014-Nov-07 14:33N 43°20' E 005°22'0 0.0
2014-Nov-07 13:30N 43°20' E 005°22'0 0.0
2014-Nov-07 12:30N 43°20' E 005°22'0 0.0
2014-Nov-07 11:33N 43°20' E 005°22'0 0.0
2014-Nov-07 10:33N 43°20' E 005°22'0 0.0
2014-Nov-07 09:33N 43°20' E 005°22'0 0.0
2014-Nov-07 08:33N 43°20' E 005°22'0 0.0
2014-Nov-07 07:30N 43°20' E 005°22'0 0.0
2014-Nov-07 06:30N 43°20' E 005°22'0 0.0
2014-Nov-07 05:30N 43°20' E 005°22'0 0.0
2014-Nov-07 04:30N 43°20' E 005°22'0 0.0
2014-Nov-07 03:30N 43°20' E 005°22'0 0.0
2014-Nov-07 02:30N 43°20' E 005°22'0 0.0
2014-Nov-07 01:24N 43°20' E 005°22'0 0.0
2014-Nov-07 00:33N 43°20' E 005°22'0 0.0
2014-Nov-06 23:33N 43°20' E 005°22'0 0.0
2014-Nov-06 22:30N 43°20' E 005°22'0 0.0
2014-Nov-06 21:33N 43°20' E 005°22'0 0.0
2014-Nov-06 20:33N 43°20' E 005°22'0 0.0
2014-Nov-06 19:33N 43°20' E 005°22'0 0.0
2014-Nov-06 18:26N 43°20' E 005°22'0 0.0
2014-Nov-06 17:29N 43°20' E 005°22'0 0.0
2014-Nov-06 16:33N 43°20' E 005°22'0 0.0
2014-Nov-06 15:32N 43°20' E 005°22'0 0.0
2014-Nov-06 14:32N 43°20' E 005°22'0 0.0
2014-Nov-06 13:32N 43°20' E 005°22'0 0.0
2014-Nov-06 12:20N 43°20' E 005°22'0 0.0
2014-Nov-06 11:32N 43°20' E 005°22'0 0.0
2014-Nov-06 10:32N 43°20' E 005°22'0 0.0
2014-Nov-06 09:29N 43°20' E 005°22'0 0.0
2014-Nov-06 08:32N 43°20' E 005°22'0 0.0
2014-Nov-06 07:32N 43°20' E 005°22'0 0.0
2014-Nov-06 06:29N 43°20' E 005°22'0 0.0
2014-Nov-06 05:29N 43°20' E 005°22'0 0.0
2014-Nov-06 04:32N 43°20' E 005°22'0 0.0
2014-Nov-06 03:32N 43°20' E 005°22'0 0.0
2014-Nov-06 02:32N 43°20' E 005°22'0 0.0
2014-Nov-06 01:29N 43°20' E 005°22'0 0.0
2014-Nov-06 00:32N 43°20' E 005°22'0 0.0
2014-Nov-05 23:29N 43°20' E 005°22'0 0.0
2014-Nov-05 22:32N 43°20' E 005°22'0 0.0
2014-Nov-05 21:29N 43°20' E 005°22'0 0.0
2014-Nov-05 20:29N 43°20' E 005°22'0 0.0
2014-Nov-05 19:32N 43°20' E 005°22'0 0.0
2014-Nov-05 18:32N 43°20' E 005°22'0 0.0
2014-Nov-05 17:32N 43°20' E 005°22'0 0.0
2014-Nov-05 16:29N 43°20' E 005°22'0 0.0
2014-Nov-05 15:29N 43°20' E 005°22'0 0.0
2014-Nov-05 14:29N 43°20' E 005°22'0 0.0
2014-Nov-05 13:32N 43°20' E 005°22'0 0.0
2014-Nov-05 12:32N 43°20' E 005°22'0 0.0
2014-Nov-05 11:32N 43°20' E 005°22'0 0.0
2014-Nov-05 10:32N 43°20' E 005°22'0 0.0
2014-Nov-05 09:32N 43°20' E 005°22'  

Dump ship's entire track history